Flight Track Log - Related Links

Times and Time Zones

All times are in EDT time to prevent confusion due to time zone crossing. See the SWA419 flight status page for this flight to view local times or setup timezone preferences in your user account.

Time Position Orientation Groundspeed Altitude Reporting Facility
EDT Latitude Longitude Course Direction KTS MPH feet Rate Location/Type
Fri 01:47:48 PM 36.0761 -115.1683 269° West 159 183 3,300  Level Los Angeles Center
Fri 01:48:25 PM 36.0756 -115.2056 269° West 180 207 4,200 2,000 Climbing Los Angeles Center
Fri 01:49:03 PM 36.0694 -115.2458 259° West 196 226 5,800 2,111 Climbing Los Angeles Center
Fri 01:49:19 PM 36.0556 -115.2628 225° Southwest 222 255 6,100 1,161 Climbing Los Angeles Center
Fri 01:50:05 PM 36.0119 -115.2822 200° South 245 282 7,000 885 Climbing Los Angeles Center
Fri 01:50:20 PM 35.9911 -115.2944 205° Southwest 268 308 7,000 1,935 Level Los Angeles Center
Fri 01:51:07 PM 35.9475 -115.3306 214° Southwest 255 293 9,000 2,852 Climbing Los Angeles Center
Fri 01:51:21 PM 35.9356 -115.3472 228° Southwest 254 292 9,900 1,935 Climbing Los Angeles Center
Fri 01:52:09 PM 35.9167 -115.4069 249° West 271 312 11,000 600 Climbing Los Angeles Center
Fri 01:53:11 PM 35.9128 -115.5042 267° West 266 306 11,000 528 Level Los Angeles Center
Fri 01:54:14 PM 35.9094 -115.5989 268° West 279 321 12,100 2,208 Climbing Los Angeles Center
Fri 01:55:16 PM 35.9044 -115.7186 267° West 323 372 15,600 3,290 Climbing Los Angeles Center
Fri 01:56:18 PM 35.9094 -115.8356 273° West 343 395 18,900 3,097 Climbing Los Angeles Center
Fri 01:57:20 PM 35.9853 -115.9428 311° West 387 445 22,000 2,565 Climbing Los Angeles Center
Fri 01:58:22 PM 36.0486 -116.0308 312° West 390 449 24,200 2,064 Climbing Los Angeles Center
Fri 01:59:25 PM 36.1406 -116.1572 312° West 408 470 26,300 1,824 Climbing Los Angeles Center
Fri 02:00:27 PM 36.2086 -116.2486 313° West 424 488 28,000 1,742 Climbing Los Angeles Center
Fri 02:01:29 PM 36.3033 -116.3808 312° West 429 494 29,900 1,935 Climbing Los Angeles Center
Fri 02:02:31 PM 36.3833 -116.4914 312° West 431 496 32,000 1,742 Climbing Los Angeles Center
Fri 02:03:33 PM 36.4608 -116.5997 312° West 427 491 33,500 1,500 Climbing Los Angeles Center
Fri 02:04:35 PM 36.5378 -116.7089 311° West 427 491 35,100 1,536 Climbing Los Angeles Center
Fri 02:05:38 PM 36.6633 -116.8058 328° Northwest 448 516 36,700 1,152 Climbing Los Angeles Center
Fri 02:06:40 PM 36.7833 -116.8708 337° Northwest 464 534 37,500 629 Climbing Los Angeles Center
Fri 02:07:42 PM 36.9028 -116.9411 335° Northwest 468 539 38,000 242 Climbing Los Angeles Center
Fri 02:08:44 PM 37.0214 -117.0075 336° Northwest 468 539 38,000  Level Los Angeles Center
Fri 02:10:29 PM 37.2350 -117.1200 337° Northwest 465 535 38,000  Level Oakland Center
Fri 02:11:30 PM 37.3356 -117.2075 325° Northwest 438 504 38,000  Level Oakland Center
Fri 02:12:31 PM 37.4331 -117.3025 322° Northwest 438 504 38,000  Level Oakland Center
Fri 02:13:33 PM 37.5303 -117.3972 322° Northwest 440 506 38,000  Level Oakland Center
Fri 02:14:34 PM 37.6264 -117.4922 322° Northwest 439 505 38,000  Level Oakland Center
Fri 02:15:36 PM 37.7219 -117.5858 322° Northwest 435 501 38,000  Level Oakland Center
Fri 02:16:37 PM 37.8219 -117.6825 323° Northwest 445 512 38,000  Level Oakland Center
Fri 02:17:39 PM 37.9194 -117.7808 322° Northwest 445 512 38,000  Level Oakland Center
Fri 02:18:40 PM 38.0167 -117.8764 322° Northwest 444 511 38,000  Level Oakland Center
Fri 02:19:41 PM 38.1147 -117.9742 322° Northwest 444 511 38,000  Level Oakland Center
Fri 02:20:43 PM 38.2111 -118.0717 322° Northwest 443 510 38,000  Level Oakland Center
Fri 02:21:44 PM 38.3278 -118.1889 322° Northwest 440 506 38,000  Level Oakland Center
Fri 02:22:46 PM 38.4233 -118.2875 321° Northwest 440 506 38,000  Level Oakland Center
Fri 02:23:47 PM 38.5189 -118.3856 321° Northwest 440 506 38,000  Level Oakland Center
Fri 02:24:48 PM 38.6156 -118.4844 321° Northwest 442 509 38,000  Level Oakland Center
Fri 02:25:50 PM 38.7125 -118.5814 322° Northwest 442 509 38,000  Level Oakland Center
Fri 02:26:51 PM 38.8089 -118.6808 321° Northwest 442 509 38,000  Level Oakland Center
Fri 02:27:53 PM 38.9056 -118.7806 321° Northwest 443 510 38,000  Level Oakland Center
Fri 02:28:54 PM 39.0022 -118.8808 321° Northwest 443 510 38,000  Level Oakland Center
Fri 02:29:55 PM 39.0989 -118.9808 321° Northwest 443 510 38,000  Level Oakland Center
Fri 02:30:57 PM 39.1950 -119.0806 321° Northwest 442 509 38,000  Level Oakland Center
Fri 02:31:58 PM 39.3111 -119.1492 335° Northwest 455 524 38,000  Level Oakland Center
Fri 02:32:59 PM 39.4314 -119.2081 339° North 455 524 38,000  Level Oakland Center
Fri 02:34:01 PM 39.5756 -119.2786 339° North 457 526 38,000  Level Oakland Center
Fri 02:35:02 PM 39.6969 -119.3367 340° North 459 528 38,000  Level Oakland Center
Fri 02:36:04 PM 39.8161 -119.3953 339° North 459 528 38,000  Level Oakland Center
Fri 02:37:05 PM 39.9364 -119.4531 340° North 459 528 38,000  Level Oakland Center
Fri 02:38:07 PM 40.0567 -119.5128 339° North 459 528 38,000  Level Oakland Center
Fri 02:39:08 PM 40.1761 -119.5717 339° North 460 529 38,000  Level Oakland Center
Fri 02:40:10 PM 40.2961 -119.6311 339° North 459 528 38,000  Level Oakland Center
Fri 02:41:11 PM 40.4139 -119.6914 339° North 459 528 38,000  Level Oakland Center
Fri 02:42:13 PM 40.5336 -119.7492 340° North 459 528 38,000  Level Oakland Center
Fri 02:43:14 PM 40.6564 -119.8103 339° North 459 528 38,000  Level Oakland Center
Fri 02:44:15 PM 40.7750 -119.8694 339° North 458 527 38,000  Level Oakland Center
Fri 02:45:01 PM 40.8714 -119.9219 338° Northwest 455 524 38,000  Level Seattle Center
Fri 02:46:02 PM 40.9914 -119.9783 340° North 456 525 38,000  Level Seattle Center
Fri 02:47:03 PM 41.1097 -120.0397 339° North 456 525 38,000  Level Seattle Center
Fri 02:48:05 PM 41.2281 -120.0989 339° North 456 525 38,000  Level Seattle Center
Fri 02:49:06 PM 41.3689 -120.1739 338° Northwest 456 525 38,000  Level Seattle Center
Fri 02:50:07 PM 41.4869 -120.2333 339° North 456 525 38,000  Level Seattle Center
Fri 02:51:08 PM 41.6061 -120.2931 339° North 457 526 38,000  Level Seattle Center
Fri 02:52:09 PM 41.7242 -120.3542 339° North 460 529 38,000  Level Seattle Center
Fri 02:53:10 PM 41.8428 -120.4172 338° Northwest 459 528 38,000  Level Seattle Center
Fri 02:54:12 PM 41.9608 -120.4792 339° North 460 529 38,000  Level Seattle Center
Fri 02:55:13 PM 42.0833 -120.5411 339° North 465 535 38,000  Level Seattle Center
Fri 02:56:14 PM 42.2017 -120.6039 339° North 464 534 38,000  Level Seattle Center
Fri 02:57:15 PM 42.3211 -120.6678 338° Northwest 463 533 38,000  Level Seattle Center
Fri 02:58:16 PM 42.4633 -120.7414 339° North 461 531 38,000  Level Seattle Center
Fri 02:59:18 PM 42.5811 -120.8053 338° Northwest 460 529 38,000  Level Seattle Center
Fri 03:00:19 PM 42.6981 -120.8661 339° North 454 522 38,000  Level Seattle Center
Fri 03:01:20 PM 42.8133 -120.9308 338° Northwest 454 522 38,000  Level Seattle Center
Fri 03:02:21 PM 42.9292 -120.9919 339° North 452 520 38,000  Level Seattle Center
Fri 03:03:22 PM 43.0467 -121.0542 339° North 453 521 38,000  Level Seattle Center
Fri 03:04:24 PM 43.1622 -121.1161 339° North 451 519 38,000  Level Seattle Center
Fri 03:05:25 PM 43.2775 -121.1814 338° Northwest 451 519 38,000  Level Seattle Center
Fri 03:06:26 PM 43.4181 -121.2539 339° North 451 519 38,000  Level Seattle Center
Fri 03:07:27 PM 43.5339 -121.3183 338° Northwest 451 519 38,000  Level Seattle Center
Fri 03:08:28 PM 43.6500 -121.3847 338° Northwest 451 519 38,000  Level Seattle Center
Fri 03:09:29 PM 43.7669 -121.4489 338° Northwest 452 520 38,000  Level Seattle Center
Fri 03:10:30 PM 43.8800 -121.5128 338° Northwest 460 529 38,000  Level Seattle Center
Fri 03:11:32 PM 44.0000 -121.5803 338° Northwest 464 534 38,000  Level Seattle Center
Fri 03:12:33 PM 44.1186 -121.6456 338° Northwest 463 533 38,000  Level Seattle Center
Fri 03:13:34 PM 44.2353 -121.7106 338° Northwest 454 522 38,000  Level Seattle Center
Fri 03:14:35 PM 44.3556 -121.7794 338° Northwest 455 524 38,000  Level Seattle Center
Fri 03:15:36 PM 44.4953 -121.8586 338° Northwest 453 521 38,000  Level Seattle Center
Fri 03:16:37 PM 44.6008 -121.9194 338° Northwest 454 522 38,000  Level Seattle Center
Fri 03:17:39 PM 44.7272 -121.9947 337° Northwest 447 514 38,000  Level Seattle Center
Fri 03:18:40 PM 44.8436 -122.0603 338° Northwest 449 517 38,000  Level Seattle Center
Fri 03:19:41 PM 44.9536 -122.1258 337° Northwest 447 514 38,000  Level Seattle Center
Fri 03:20:42 PM 45.0681 -122.1922 338° Northwest 447 514 38,000  Level Seattle Center
Fri 03:21:43 PM 45.1842 -122.2592 338° Northwest 450 518 38,000 -246 Level Seattle Center
Fri 03:22:44 PM 45.2931 -122.3464 331° Northwest 458 527 37,500 -738 Descending Seattle Center
Fri 03:23:45 PM 45.3500 -122.4961 298° West 455 524 36,500 -927 Descending Seattle Center
Fri 03:24:47 PM 45.3956 -122.6561 292° West 456 525 35,600 -1,024 Descending Seattle Center
Fri 03:25:48 PM 45.5317 -122.6994 347° North 450 518 34,400 -787 Descending Seattle Center
Fri 03:26:49 PM 45.6481 -122.6425 19° North 445 512 34,000 -197 Descending Seattle Center
Fri 03:27:50 PM 45.7653 -122.5983 15° North 442 509 34,000  Level Seattle Center
Fri 03:28:51 PM 45.8833 -122.6233 352° North 434 499 34,000 -98 Level Seattle Center
Fri 03:29:52 PM 46.0022 -122.6542 350° North 434 499 33,800 -1,426 Descending Seattle Center
Fri 03:30:53 PM 46.1211 -122.6822 351° North 434 499 31,100 -2,361 Descending Seattle Center
Fri 03:31:54 PM 46.2392 -122.7067 352° North 437 503 29,000 -2,098 Descending Seattle Center
Fri 03:32:56 PM 46.3558 -122.7261 353° North 427 491 26,800 -2,341 Descending Seattle Center
Fri 03:33:57 PM 46.4936 -122.7294 359° North 412 474 24,200 -2,311 Descending Seattle Center
Fri 03:34:58 PM 46.6042 -122.7328 359° North 400 460 22,100 -2,057 Descending Seattle Center
Fri 03:35:42 PM 46.6814 -122.7358 358° North 381 438 20,600 -1,869 Descending Seattle Center
Fri 03:35:59 PM 46.7094 -122.7369 358° North 379 436 20,200 -1,355 Descending Seattle Center
Fri 03:36:13 PM 46.7347 -122.7364 North 361 415 19,900 -1,770 Descending Seattle Center
Fri 03:37:00 PM 46.8008 -122.7261 North 339 390 18,400 -2,100 Descending Seattle Center
Fri 03:37:13 PM 46.8200 -122.6969 46° Northeast 325 374 17,800 -1,869 Descending Seattle Center
Fri 03:38:01 PM 46.8742 -122.6336 39° Northeast 336 387 16,500 -1,672 Descending Seattle Center
Fri 03:38:14 PM 46.8908 -122.6169 34° Northeast 323 372 16,100 -1,574 Descending Seattle Center
Fri 03:39:02 PM 46.9461 -122.5578 36° Northeast 320 368 14,900 -1,475 Descending Seattle Center
Fri 03:39:15 PM 46.9672 -122.5497 15° North 319 367 14,600 -1,475 Descending Seattle Center
Fri 03:40:03 PM 47.0358 -122.5183 17° North 309 356 13,400 -1,431 Descending Seattle Center
Fri 03:41:04 PM 47.1172 -122.4917 13° North 299 344 12,000 -1,426 Descending Seattle Center
Fri 03:42:05 PM 47.1981 -122.4781 North 292 336 10,500 -1,279 Descending Seattle Center
Fri 03:43:06 PM 47.2758 -122.4669 North 277 319 9,400 -1,122 Descending Seattle Center
Fri 03:44:08 PM 47.3569 -122.4536 North 272 313 8,200 -1,171 Descending Seattle Center
Fri 03:45:09 PM 47.4275 -122.4547 359° North 257 296 7,000 -984 Descending Seattle Center
Fri 03:46:10 PM 47.4969 -122.4544 360° North 249 287 6,200 -836 Descending Seattle Center
Fri 03:47:11 PM 47.5606 -122.4550 360° North 231 266 5,300 -614 Descending Seattle Center
Fri 03:48:17 PM 47.6283 -122.4500 North 227 261 4,900 -639 Descending Seattle Center
Fri 03:49:13 PM 47.6300 -122.3722 88° East 222 255 4,000 -1,033 Descending Seattle Center
Fri 03:50:19 PM 47.5739 -122.3225 149° Southeast 213 245 2,800 -1,131 Descending Seattle Center
Fri 03:51:15 PM 47.5231 -122.3175 176° South 182 209 1,700 -991 Descending Seattle Center
Fri 03:52:14 PM 47.4842 -122.3194 182° South 134 154 900 -639 Descending Seattle Center
Fri 03:53:17 PM 47.4481 -122.3189 179° South 143 165 400 -476 Descending Seattle Center
Fri 03:55:00 PM 47.4499 -122.3118 132° Southeast  Level Estimated

Login

Don't have an account? Register now (free) for customized features, flight alerts, and more!